Time;durP1;ratioP1;P1;durP2;ratioP2;P2;SDS_P1;SDS_P2;PMS_P1;PMS_P2;Temp;Humidity;BMP_temperature;BMP_pressure;BME280_temperature;BME280_humidity;BME280_pressure;Samples;Min_cycle;Max_cycle;Signal;HPM_P1;HPM_P2
2022/07/30 00:02:26;;;;;;;11.40;5.93;;;18.20;1.00;;;;;;5112178;28;20669;-65
2022/07/30 00:04:52;;;;;;;10.37;5.63;;;18.20;1.00;;;;;;5112419;28;20207;-64
2022/07/30 00:07:19;;;;;;;9.07;5.90;;;18.10;1.00;;;;;;5111751;28;20211;-64
2022/07/30 00:09:46;;;;;;;9.50;5.20;;;18.10;1.00;;;;;;5112279;28;20644;-65
2022/07/30 00:12:12;;;;;;;10.17;5.23;;;18.00;1.00;;;;;;5111972;28;20591;-65
2022/07/30 00:14:39;;;;;;;6.60;5.30;;;18.00;1.00;;;;;;5112404;28;20204;-64
2022/07/30 00:17:07;;;;;;;8.27;5.50;;;17.90;1.00;;;;;;5112083;28;20203;-64
2022/07/30 00:19:34;;;;;;;6.70;5.27;;;17.80;1.00;;;;;;5111970;28;20223;-64
2022/07/30 00:22:01;;;;;;;10.50;5.80;;;17.80;1.00;;;;;;5112220;28;20248;-64
2022/07/30 00:24:27;;;;;;;9.70;5.30;;;17.70;1.00;;;;;;5112088;28;20265;-64
2022/07/30 00:26:54;;;;;;;7.57;5.27;;;17.60;1.00;;;;;;5112666;28;20203;-64
2022/07/30 00:29:21;;;;;;;7.37;5.30;;;17.60;1.00;;;;;;5112535;28;20204;-64
2022/07/30 00:31:47;;;;;;;8.37;5.60;;;17.50;73.50;;;;;;5112467;28;20231;-64
2022/07/30 00:34:16;;;;;;;8.20;5.83;;;17.50;99.90;;;;;;5113115;28;20264;-64
2022/07/30 00:36:42;;;;;;;10.13;5.97;;;17.40;99.90;;;;;;5115904;28;20203;-64
2022/07/30 00:39:09;;;;;;;8.80;6.20;;;17.40;99.90;;;;;;5115982;28;20244;-64
2022/07/30 00:41:53;;;;;;;9.57;5.50;;;17.30;1.00;;;;;;5115721;28;20705;-64
2022/07/30 00:44:20;;;;;;;10.53;5.73;;;17.30;1.00;;;;;;5115987;28;20269;-64
2022/07/30 00:46:46;;;;;;;11.73;5.83;;;17.20;99.90;;;;;;5115780;28;20216;-64
2022/07/30 00:49:14;;;;;;;8.00;6.27;;;17.20;99.90;;;;;;5115804;28;20236;-64
2022/07/30 00:51:41;;;;;;;12.23;6.17;;;17.10;87.20;;;;;;5115599;28;20249;-64
2022/07/30 00:54:08;;;;;;;10.17;6.00;;;17.10;1.00;;;;;;5115482;27;20211;-64
2022/07/30 00:56:34;;;;;;;8.50;6.17;;;17.00;99.90;;;;;;5115256;28;20725;-65
2022/07/30 00:59:01;;;;;;;10.57;5.90;;;17.00;99.90;;;;;;5115465;28;20697;-64
2022/07/30 01:01:28;;;;;;;10.43;5.90;;;16.90;1.00;;;;;;5115484;28;20269;-64
2022/07/30 01:03:54;;;;;;;8.90;6.30;;;16.90;1.00;;;;;;5115477;28;20215;-64
2022/07/30 01:06:22;;;;;;;10.10;5.90;;;16.80;99.90;;;;;;5114895;28;20207;-64
2022/07/30 01:08:49;;;;;;;7.37;5.43;;;16.80;99.90;;;;;;5115327;28;20203;-64
2022/07/30 01:11:16;;;;;;;8.73;5.43;;;16.70;1.00;;;;;;5115271;28;20288;-64
2022/07/30 01:13:43;;;;;;;8.40;5.90;;;16.70;1.00;;;;;;5115464;28;20204;-64
2022/07/30 01:16:10;;;;;;;7.47;5.43;;;16.60;99.90;;;;;;5114916;28;20207;-64
2022/07/30 01:21:32;;;;;;;7.47;5.60;;;16.50;99.90;;;;;;5115020;28;20648;-64
2022/07/30 01:24:04;;;;;;;11.63;6.03;;;16.50;1.00;;;;;;5115157;28;20207;-65
2022/07/30 01:26:34;;;;;;;9.23;6.13;;;16.40;1.00;;;;;;5114992;28;20253;-64
2022/07/30 01:29:01;;;;;;;6.87;5.47;;;16.30;1.00;;;;;;5115082;28;20203;-64
2022/07/30 01:31:29;;;;;;;9.70;7.17;;;16.30;1.00;;;;;;5114566;28;20224;-65
2022/07/30 01:33:58;;;;;;;7.97;6.30;;;16.30;1.00;;;;;;5115250;28;20260;-64
2022/07/30 01:36:26;;;;;;;8.50;5.60;;;16.20;1.00;;;;;;5114547;28;20215;-64
2022/07/30 01:38:54;;;;;;;10.00;6.37;;;16.10;1.00;;;;;;5114947;28;20256;-64
2022/07/30 01:41:21;;;;;;;10.40;6.20;;;16.10;1.00;;;;;;5114686;28;20231;-64
2022/07/30 01:43:49;;;;;;;8.73;6.17;;;16.10;1.00;;;;;;5114715;28;20200;-64
2022/07/30 01:46:18;;;;;;;8.37;6.77;;;16.10;1.00;;;;;;5113264;28;20216;-64
2022/07/30 01:48:46;;;;;;;10.13;6.37;;;16.00;1.00;;;;;;5114820;28;20204;-64
2022/07/30 01:51:14;;;;;;;10.73;6.23;;;16.00;1.00;;;;;;5114516;28;20662;-64
2022/07/30 01:53:42;;;;;;;10.27;6.50;;;16.00;1.00;;;;;;5114456;27;20650;-64
2022/07/30 01:56:11;;;;;;;10.80;7.17;;;15.90;1.00;;;;;;5114206;28;20203;-64
2022/07/30 01:58:40;;;;;;;7.30;6.30;;;15.90;1.00;;;;;;5113986;28;20713;-64
2022/07/30 02:01:08;;;;;;;8.30;6.83;;;15.80;1.00;;;;;;5114669;28;20246;-64
2022/07/30 02:03:35;;;;;;;10.83;6.97;;;15.80;1.00;;;;;;5114595;28;20204;-64
2022/07/30 02:06:05;;;;;;;9.07;6.73;;;15.80;1.00;;;;;;5114848;27;20584;-64
2022/07/30 02:08:39;;;;;;;9.60;6.90;;;15.80;1.00;;;;;;5114269;28;20731;-64
2022/07/30 02:11:08;;;;;;;10.40;7.00;;;15.80;1.00;;;;;;5114113;27;20277;-64
2022/07/30 02:13:44;;;;;;;9.33;6.73;;;15.80;1.00;;;;;;5114132;28;20440;-64
2022/07/30 02:16:17;;;;;;;10.67;7.17;;;15.70;1.00;;;;;;5113815;28;20726;-64
2022/07/30 02:18:55;;;;;;;9.67;7.40;;;15.70;1.00;;;;;;5114041;28;20216;-64
2022/07/30 02:21:24;;;;;;;8.07;6.87;;;15.70;1.00;;;;;;5113939;28;20741;-64
2022/07/30 02:23:52;;;;;;;8.83;7.27;;;15.70;1.00;;;;;;5113779;28;20670;-64
2022/07/30 02:26:22;;;;;;;10.07;7.00;;;15.70;1.00;;;;;;5113828;28;20200;-64
2022/07/30 02:28:53;;;;;;;15.13;8.00;;;15.70;1.00;;;;;;5113914;28;20288;-64
2022/07/30 02:31:24;;;;;;;9.73;7.47;;;15.70;1.00;;;;;;5113875;28;20223;-64
2022/07/30 02:33:56;;;;;;;10.93;6.93;;;15.60;1.00;;;;;;5113531;28;20224;-63
2022/07/30 02:36:25;;;;;;;10.97;7.60;;;15.60;1.00;;;;;;5113580;28;20286;-64
2022/07/30 02:38:52;;;;;;;12.50;6.80;;;15.60;1.00;;;;;;5113539;28;20211;-64
2022/07/30 02:41:20;;;;;;;9.57;7.33;;;15.60;1.00;;;;;;5113702;27;20719;-64
2022/07/30 02:43:49;;;;;;;11.93;7.20;;;15.60;1.00;;;;;;5113591;28;20211;-64
2022/07/30 02:46:18;;;;;;;9.90;6.40;;;15.60;1.00;;;;;;5113142;28;20212;-64
2022/07/30 02:48:47;;;;;;;12.80;7.30;;;15.50;1.00;;;;;;5113556;28;20203;-64
2022/07/30 02:51:17;;;;;;;9.10;6.87;;;15.50;3.30;;;;;;5113725;27;20588;-64
2022/07/30 02:53:46;;;;;;;13.37;7.27;;;15.50;6.10;;;;;;5113560;28;20277;-64
2022/07/30 02:56:14;;;;;;;8.67;7.00;;;15.50;11.00;;;;;;5113083;28;20264;-64
2022/07/30 02:58:43;;;;;;;14.60;8.07;;;15.40;13.20;;;;;;5113150;28;20203;-64
2022/07/30 03:01:13;;;;;;;11.77;8.30;;;15.40;16.00;;;;;;5113121;28;20227;-64
2022/07/30 03:03:40;;;;;;;9.23;7.60;;;15.40;40.50;;;;;;5113534;28;20268;-64
2022/07/30 03:06:09;;;;;;;10.07;8.20;;;15.30;44.00;;;;;;5112918;28;20261;-64
2022/07/30 03:08:37;;;;;;;13.93;8.80;;;15.30;45.00;;;;;;5113117;28;20207;-64
2022/07/30 03:11:05;;;;;;;13.00;8.87;;;15.30;46.40;;;;;;5112966;28;20223;-64
2022/07/30 03:13:32;;;;;;;10.67;8.03;;;15.30;49.40;;;;;;5112786;28;20219;-64
2022/07/30 03:16:00;;;;;;;12.33;8.97;;;15.20;53.00;;;;;;5112816;28;20199;-64
2022/07/30 03:18:32;;;;;;;12.33;9.00;;;15.20;69.60;;;;;;5113075;28;20219;-64
2022/07/30 03:21:00;;;;;;;13.90;8.70;;;15.20;73.70;;;;;;5111794;28;20246;-64
2022/07/30 03:23:29;;;;;;;10.30;8.70;;;15.20;77.90;;;;;;5112944;28;20294;-64
2022/07/30 03:25:59;;;;;;;12.63;9.33;;;15.20;83.10;;;;;;5112611;28;20207;-64
2022/07/30 03:28:30;;;;;;;12.93;8.87;;;15.20;85.20;;;;;;5112669;28;20257;-64
2022/07/30 03:30:57;;;;;;;10.87;8.07;;;15.20;87.20;;;;;;5112868;28;20239;-64
2022/07/30 03:33:25;;;;;;;12.40;8.70;;;15.10;89.00;;;;;;5112695;28;20228;-64
2022/07/30 03:35:53;;;;;;;12.83;8.90;;;15.10;90.40;;;;;;5112492;28;20727;-64
2022/07/30 03:38:22;;;;;;;12.63;8.93;;;15.10;91.90;;;;;;5112589;28;20203;-64
2022/07/30 03:40:50;;;;;;;10.77;9.03;;;15.00;92.80;;;;;;5112349;28;20231;-64
2022/07/30 03:43:18;;;;;;;11.30;8.70;;;15.00;93.80;;;;;;5112180;28;20678;-64
2022/07/30 03:45:46;;;;;;;13.53;9.87;;;14.90;94.20;;;;;;5112523;28;20673;-65
2022/07/30 03:48:14;;;;;;;13.93;9.60;;;14.90;95.20;;;;;;5112232;28;20272;-65
2022/07/30 03:50:42;;;;;;;14.30;9.90;;;14.90;96.60;;;;;;5112484;28;20261;-65
2022/07/30 03:53:10;;;;;;;13.33;9.90;;;14.90;97.40;;;;;;5112231;28;20276;-65
2022/07/30 03:55:38;;;;;;;33.03;21.43;;;14.90;99.50;;;;;;5112525;28;20204;-65
2022/07/30 03:58:07;;;;;;;76.37;48.60;;;14.90;99.90;;;;;;5111867;28;20670;-65
2022/07/30 04:00:33;;;;;;;16.70;13.37;;;14.80;99.90;;;;;;5112338;28;20234;-65
2022/07/30 04:03:00;;;;;;;16.90;12.10;;;14.80;99.90;;;;;;5112316;28;20727;-65
2022/07/30 04:05:27;;;;;;;15.80;11.40;;;14.80;99.90;;;;;;5112421;28;20207;-65
2022/07/30 04:07:54;;;;;;;19.23;12.23;;;14.90;99.90;;;;;;5111940;28;20214;-65
2022/07/30 04:10:20;;;;;;;15.90;12.83;;;14.80;99.90;;;;;;5115353;28;20220;-65
2022/07/30 04:12:47;;;;;;;17.73;11.97;;;14.90;99.90;;;;;;5116474;27;20256;-65
2022/07/30 04:15:15;;;;;;;21.03;12.70;;;14.90;99.90;;;;;;5116539;28;20259;-65
2022/07/30 04:17:47;;;;;;;14.23;12.10;;;14.90;99.90;;;;;;5116128;28;20203;-64
2022/07/30 04:20:18;;;;;;;17.17;12.73;;;14.90;99.90;;;;;;5116018;28;20231;-64
2022/07/30 04:22:45;;;;;;;18.87;13.33;;;14.80;99.90;;;;;;5116343;28;20701;-65
2022/07/30 04:25:13;;;;;;;21.93;13.43;;;14.80;99.90;;;;;;5116340;28;20199;-65
2022/07/30 04:27:40;;;;;;;17.37;13.17;;;14.80;99.90;;;;;;5116195;28;20248;-65
2022/07/30 04:30:08;;;;;;;24.37;14.53;;;14.80;99.90;;;;;;5116051;28;20234;-65
2022/07/30 04:32:36;;;;;;;17.97;14.33;;;14.90;99.90;;;;;;5116134;28;20276;-65
2022/07/30 04:35:03;;;;;;;20.63;14.17;;;14.90;99.90;;;;;;5115875;28;20294;-64
2022/07/30 04:37:30;;;;;;;20.73;14.90;;;14.90;99.90;;;;;;5115848;28;20619;-64
2022/07/30 04:39:57;;;;;;;17.03;14.30;;;15.00;99.90;;;;;;5115978;28;20223;-64
2022/07/30 04:42:24;;;;;;;19.03;14.03;;;15.00;99.90;;;;;;5115875;28;20204;-64
2022/07/30 04:44:52;;;;;;;20.10;15.03;;;15.00;99.90;;;;;;5115946;27;20203;-64
2022/07/30 04:47:19;;;;;;;19.93;14.87;;;15.10;99.90;;;;;;5115499;28;20208;-64
2022/07/30 04:49:48;;;;;;;19.17;14.07;;;15.10;99.90;;;;;;5116068;27;20234;-64
2022/07/30 04:52:17;;;;;;;17.83;14.27;;;15.20;99.90;;;;;;5115788;27;20203;-64
2022/07/30 04:54:48;;;;;;;20.37;14.77;;;15.20;99.90;;;;;;5115749;28;20203;-64
2022/07/30 04:57:16;;;;;;;19.40;15.73;;;15.30;99.90;;;;;;5115253;28;20621;-64
2022/07/30 04:59:43;;;;;;;21.13;15.20;;;15.40;99.90;;;;;;5115647;28;20300;-64
2022/07/30 05:02:11;;;;;;;21.00;14.40;;;15.50;99.90;;;;;;5115779;28;20204;-64
2022/07/30 05:04:40;;;;;;;21.23;15.03;;;15.60;99.90;;;;;;5115631;28;20206;-64
2022/07/30 05:07:12;;;;;;;24.20;15.07;;;15.60;99.90;;;;;;5115227;27;20233;-64
2022/07/30 05:09:39;;;;;;;17.73;14.73;;;15.70;99.90;;;;;;5115487;28;20246;-64
2022/07/30 05:12:07;;;;;;;19.63;14.27;;;15.80;99.90;;;;;;5115258;28;20207;-64
2022/07/30 05:14:33;;;;;;;20.40;15.00;;;15.90;99.90;;;;;;5115233;28;20600;-64
2022/07/30 05:17:00;;;;;;;19.27;13.93;;;16.00;99.90;;;;;;5115083;28;20199;-64
2022/07/30 05:19:27;;;;;;;18.70;14.60;;;16.10;99.90;;;;;;5115162;28;20646;-64
2022/07/30 05:21:54;;;;;;;19.23;13.97;;;16.10;99.90;;;;;;5114854;28;20669;-64
2022/07/30 05:24:22;;;;;;;23.43;15.73;;;16.20;99.90;;;;;;5115233;28;20206;-64
2022/07/30 05:26:49;;;;;;;24.63;16.40;;;16.30;99.90;;;;;;5114669;28;20211;-64
2022/07/30 05:29:16;;;;;;;28.10;17.10;;;16.40;99.90;;;;;;5115344;27;20204;-65
2022/07/30 05:31:42;;;;;;;31.23;16.63;;;16.40;99.90;;;;;;5115075;28;20223;-64
2022/07/30 05:34:09;;;;;;;30.40;16.87;;;16.40;99.90;;;;;;5114668;28;20227;-64
2022/07/30 05:36:36;;;;;;;31.07;18.07;;;16.40;99.90;;;;;;5114699;28;20199;-64
2022/07/30 05:39:03;;;;;;;30.30;15.50;;;16.50;99.90;;;;;;5114804;27;20229;-64
2022/07/30 05:41:31;;;;;;;23.50;15.70;;;16.60;99.90;;;;;;5114731;28;20284;-64
2022/07/30 05:43:58;;;;;;;23.20;15.60;;;16.60;99.90;;;;;;5114958;28;20207;-64
2022/07/30 05:46:24;;;;;;;24.73;16.13;;;16.60;99.90;;;;;;5114906;27;20207;-64
2022/07/30 05:48:51;;;;;;;24.87;16.07;;;16.70;99.90;;;;;;5114536;28;20205;-64
2022/07/30 05:51:19;;;;;;;22.87;15.70;;;16.80;99.90;;;;;;5114589;28;20258;-64
2022/07/30 05:53:46;;;;;;;26.67;15.90;;;16.80;99.90;;;;;;5114398;28;20227;-64
2022/07/30 05:56:13;;;;;;;23.77;14.57;;;16.90;99.90;;;;;;5114467;28;20212;-64
2022/07/30 05:58:41;;;;;;;25.60;16.73;;;17.00;99.90;;;;;;5114648;28;20624;-64
2022/07/30 06:01:08;;;;;;;25.43;16.87;;;16.90;99.90;;;;;;5114702;27;20228;-64
2022/07/30 06:03:34;;;;;;;22.73;16.63;;;16.90;99.90;;;;;;5114484;28;20670;-64
2022/07/30 06:06:03;;;;;;;26.27;17.43;;;17.10;99.90;;;;;;5114171;28;20207;-64
2022/07/30 06:08:29;;;;;;;23.53;18.27;;;17.20;99.90;;;;;;5114233;28;20276;-64
2022/07/30 06:10:56;;;;;;;30.80;19.50;;;17.20;99.90;;;;;;5114342;28;20231;-64
2022/07/30 06:13:23;;;;;;;33.83;21.90;;;17.30;99.90;;;;;;5114363;28;20276;-64
2022/07/30 06:15:51;;;;;;;33.53;21.37;;;17.40;99.90;;;;;;5114070;28;20204;-64
2022/07/30 06:18:18;;;;;;;39.97;22.23;;;17.50;99.90;;;;;;5114455;28;20562;-64
2022/07/30 06:20:45;;;;;;;28.63;20.37;;;17.60;99.90;;;;;;5113983;28;20560;-64
2022/07/30 06:23:12;;;;;;;40.13;22.10;;;17.60;99.90;;;;;;5113791;28;20200;-64
2022/07/30 06:25:39;;;;;;;37.13;22.40;;;17.60;99.90;;;;;;5113918;28;20211;-64
2022/07/30 06:28:05;;;;;;;36.37;23.20;;;17.70;99.90;;;;;;5113679;27;20211;-64
2022/07/30 06:30:32;;;;;;;36.20;22.70;;;17.60;99.90;;;;;;5113754;28;20234;-64
2022/07/30 06:33:00;;;;;;;33.67;19.90;;;17.70;99.90;;;;;;5113105;28;20200;-64
2022/07/30 06:35:27;;;;;;;31.70;21.17;;;17.70;99.90;;;;;;5113728;28;20204;-64
2022/07/30 06:37:53;;;;;;;29.47;20.77;;;17.80;99.90;;;;;;5113296;28;20236;-64
2022/07/30 06:40:20;;;;;;;26.90;19.13;;;17.80;99.90;;;;;;5113601;28;20257;-64
2022/07/30 06:42:47;;;;;;;28.53;18.20;;;17.90;99.90;;;;;;5113641;28;20616;-64
2022/07/30 06:45:13;;;;;;;26.80;18.47;;;18.00;99.90;;;;;;5113566;28;20735;-64
2022/07/30 06:47:40;;;;;;;30.47;20.03;;;18.10;99.90;;;;;;5113032;28;20256;-64
2022/07/30 06:50:09;;;;;;;40.73;23.07;;;18.00;99.90;;;;;;5113395;28;20623;-64
2022/07/30 06:52:36;;;;;;;36.17;22.60;;;18.10;99.90;;;;;;5113384;28;20881;-64
2022/07/30 06:55:03;;;;;;;32.43;22.07;;;18.20;96.00;;;;;;5113292;28;20774;-65
2022/07/30 06:57:30;;;;;;;42.37;26.40;;;18.20;95.00;;;;;;5113150;28;20606;-65
2022/07/30 06:59:57;;;;;;;56.00;33.73;;;17.90;95.60;;;;;;5113423;28;20228;-65
2022/07/30 07:02:23;;;;;;;57.70;38.53;;;17.90;99.90;;;;;;5113428;28;20214;-65
2022/07/30 07:04:50;;;;;;;66.23;39.03;;;17.70;99.90;;;;;;5112991;28;20265;-63
2022/07/30 07:07:18;;;;;;;58.70;35.83;;;18.00;99.90;;;;;;5112825;28;20212;-63
2022/07/30 07:09:45;;;;;;;51.83;35.00;;;18.10;99.90;;;;;;5113227;28;20272;-63
2022/07/30 07:12:11;;;;;;;53.83;36.67;;;18.30;99.90;;;;;;5112784;28;20204;-63
2022/07/30 07:14:38;;;;;;;55.33;36.57;;;18.20;97.60;;;;;;5112891;28;20223;-64
2022/07/30 07:17:05;;;;;;;58.67;37.77;;;18.10;99.90;;;;;;5112652;28;20199;-64
2022/07/30 07:19:31;;;;;;;51.00;35.43;;;18.30;96.70;;;;;;5112673;28;20673;-64
2022/07/30 07:21:58;;;;;;;55.30;36.53;;;18.40;85.40;;;;;;5112862;28;20407;-64
2022/07/30 07:24:26;;;;;;;60.03;38.07;;;18.20;92.20;;;;;;5112968;28;20199;-64
2022/07/30 07:26:53;;;;;;;49.40;33.07;;;18.10;96.50;;;;;;5112505;28;20723;-64
2022/07/30 07:29:19;;;;;;;47.80;30.80;;;17.80;99.90;;;;;;5112536;28;20625;-64
2022/07/30 07:31:46;;;;;;;47.07;28.93;;;17.80;98.80;;;;;;5112780;28;20204;-64
2022/07/30 07:34:13;;;;;;;45.33;28.53;;;17.90;99.90;;;;;;5112694;28;20223;-64
2022/07/30 07:36:40;;;;;;;41.67;25.93;;;17.90;96.50;;;;;;5112477;28;20204;-63
2022/07/30 07:39:08;;;;;;;43.93;25.17;;;18.00;97.20;;;;;;5112398;28;20673;-63
2022/07/30 07:41:36;;;;;;;43.93;25.20;;;18.10;90.80;;;;;;5112685;28;20223;-64
2022/07/30 07:44:04;;;;;;;55.43;31.83;;;18.00;95.00;;;;;;5112468;28;20210;-64
2022/07/30 07:46:31;;;;;;;62.00;32.97;;;17.80;93.20;;;;;;5112189;28;20207;-64
2022/07/30 07:48:57;;;;;;;68.63;34.63;;;18.10;87.40;;;;;;5112346;28;20665;-64
2022/07/30 07:51:24;;;;;;;65.03;34.70;;;18.20;83.40;;;;;;5112574;28;20639;-64
2022/07/30 07:53:51;;;;;;;71.03;35.60;;;18.50;83.30;;;;;;5112422;28;20223;-64
2022/07/30 07:56:19;;;;;;;71.30;34.67;;;18.50;60.10;;;;;;5111900;28;20228;-64
2022/07/30 07:58:47;;;;;;;77.50;37.53;;;18.50;50.60;;;;;;5112390;28;20565;-63
2022/07/30 08:01:14;;;;;;;85.10;37.07;;;18.50;49.60;;;;;;5112147;28;20227;-64
2022/07/30 08:03:41;;;;;;;81.57;36.50;;;18.50;63.50;;;;;;5112517;28;20199;-64
2022/07/30 08:06:07;;;;;;;86.97;39.57;;;18.50;54.40;;;;;;5111669;28;20204;-64
2022/07/30 08:08:35;;;;;;;91.63;40.87;;;18.50;56.80;;;;;;5112481;28;20311;-64
2022/07/30 08:11:02;;;;;;;87.03;38.70;;;18.70;54.10;;;;;;5112217;28;20236;-64
2022/07/30 08:13:29;;;;;;;90.87;39.80;;;18.90;47.90;;;;;;5112012;28;20277;-64
2022/07/30 08:15:57;;;;;;;89.70;42.50;;;19.00;49.80;;;;;;5111882;28;20211;-64
2022/07/30 08:18:24;;;;;;;93.90;43.07;;;19.30;25.50;;;;;;5111710;28;20260;-64
2022/07/30 08:20:50;;;;;;;86.33;41.00;;;19.50;26.60;;;;;;5112004;28;20227;-64
2022/07/30 08:23:18;;;;;;;85.93;40.03;;;19.60;14.20;;;;;;5112275;28;20249;-64
2022/07/30 08:25:45;;;;;;;87.93;41.13;;;19.70;6.30;;;;;;5112124;28;20214;-64
2022/07/30 08:28:11;;;;;;;83.53;40.93;;;19.90;10.90;;;;;;5111912;28;20626;-64
2022/07/30 08:30:38;;;;;;;85.43;40.23;;;19.90;1.10;;;;;;5111935;28;20798;-64
2022/07/30 08:33:06;;;;;;;80.00;38.90;;;19.90;1.00;;;;;;5112372;28;20218;-64
2022/07/30 08:35:33;;;;;;;71.93;38.17;;;20.00;1.00;;;;;;5112115;28;20280;-64
2022/07/30 08:37:59;;;;;;;76.00;37.37;;;20.10;1.00;;;;;;5111833;28;20211;-64
2022/07/30 08:40:27;;;;;;;75.13;36.10;;;19.70;1.00;;;;;;5111877;28;20228;-64
2022/07/30 08:42:53;;;;;;;73.37;35.17;;;19.70;1.00;;;;;;5112125;28;20208;-66
2022/07/30 08:45:21;;;;;;;63.80;31.87;;;19.90;1.00;;;;;;5112156;28;20252;-66
2022/07/30 08:47:49;;;;;;;59.20;30.70;;;20.00;1.00;;;;;;5111343;28;20681;-66
2022/07/30 08:50:18;;;;;;;61.37;29.73;;;20.20;1.00;;;;;;5111812;28;20702;-66
2022/07/30 08:52:47;;;;;;;61.53;30.90;;;20.00;99.90;;;;;;5111718;28;20674;-66
2022/07/30 08:55:15;;;;;;;52.50;27.57;;;20.20;99.90;;;;;;5112802;28;20241;-66
2022/07/30 08:57:42;;;;;;;54.23;28.20;;;20.40;1.00;;;;;;5115426;28;20208;-66
2022/07/30 09:00:10;;;;;;;53.63;28.10;;;20.50;1.00;;;;;;5115846;28;20273;-66
2022/07/30 09:02:37;;;;;;;56.23;29.97;;;20.60;1.00;;;;;;5115686;28;20212;-66
2022/07/30 09:05:06;;;;;;;49.27;27.97;;;20.60;1.00;;;;;;5115852;28;20203;-64
2022/07/30 09:07:34;;;;;;;46.90;26.53;;;20.70;1.00;;;;;;5115275;28;20257;-66
2022/07/30 09:10:01;;;;;;;45.87;25.93;;;20.90;99.90;;;;;;5115318;28;20252;-66
2022/07/30 09:12:39;;;;;;;40.07;23.47;;;21.00;99.90;;;;;;5115548;28;20208;-65
2022/07/30 09:15:09;;;;;;;38.90;23.03;;;21.20;24.40;;;;;;5115418;28;20219;-65
2022/07/30 09:17:54;;;;;;;42.63;24.30;;;21.30;1.00;;;;;;5115074;28;20268;-66
2022/07/30 09:20:22;;;;;;;37.67;22.63;;;21.40;1.00;;;;;;5115008;28;20718;-66
2022/07/30 09:22:52;;;;;;;41.70;22.43;;;21.50;1.00;;;;;;5115516;28;20229;-66
2022/07/30 09:25:34;;;;;;;37.57;23.20;;;21.60;1.00;;;;;;5115363;28;20204;-65
2022/07/30 09:28:02;;;;;;;36.47;23.20;;;21.70;1.00;;;;;;5114972;28;20203;-65
2022/07/30 09:30:42;;;;;;;33.87;21.13;;;21.80;1.00;;;;;;5114860;28;20744;-65
2022/07/30 09:33:09;;;;;;;36.03;22.43;;;21.90;1.00;;;;;;5115185;28;20272;-65
2022/07/30 09:35:35;;;;;;;37.50;22.83;;;21.80;99.90;;;;;;5114620;27;20292;-66
2022/07/30 09:38:04;;;;;;;36.10;21.83;;;21.70;99.90;;;;;;5114865;28;20335;-66
2022/07/30 09:40:31;;;;;;;32.63;21.10;;;21.90;1.00;;;;;;5114733;28;20649;-64
2022/07/30 09:43:06;;;;;;;34.40;21.40;;;21.90;99.90;;;;;;5114901;27;20203;-65
2022/07/30 09:45:33;;;;;;;31.20;19.53;;;22.00;99.90;;;;;;5114551;28;20203;-65
2022/07/30 09:48:00;;;;;;;25.23;18.80;;;21.90;99.90;;;;;;5102830;28;20624;-64
2022/07/30 09:50:27;;;;;;;27.47;18.50;;;22.00;99.90;;;;;;5112896;28;20219;-64
2022/07/30 09:52:54;;;;;;;23.07;15.60;;;22.00;99.90;;;;;;5114137;28;20203;-67
2022/07/30 09:55:34;;;;;;;25.37;13.53;;;22.00;99.90;;;;;;5114108;28;20944;-65
2022/07/30 09:58:03;;;;;;;19.23;13.77;;;22.30;99.90;;;;;;5113878;28;20260;-65
2022/07/30 10:00:32;;;;;;;19.47;13.20;;;22.30;99.90;;;;;;5113126;28;20595;-65
2022/07/30 10:03:00;;;;;;;18.00;12.83;;;22.60;1.00;;;;;;5114650;28;20200;-66
2022/07/30 10:05:27;;;;;;;19.30;13.70;;;22.70;99.90;;;;;;5114626;28;20554;-65
2022/07/30 10:07:57;;;;;;;17.93;11.73;;;23.00;99.90;;;;;;5111991;27;20207;-66
2022/07/30 10:10:25;;;;;;;14.73;10.93;;;23.10;99.90;;;;;;5113428;27;20724;-65
2022/07/30 10:12:59;;;;;;;15.40;10.97;;;22.60;99.90;;;;;;5113724;28;20683;-66
2022/07/30 10:15:31;;;;;;;15.13;9.60;;;22.70;99.90;;;;;;5113950;28;20658;-66
2022/07/30 10:17:59;;;;;;;16.10;10.23;;;22.60;99.90;;;;;;5113111;28;20268;-65
2022/07/30 10:20:26;;;;;;;13.53;8.17;;;22.60;99.90;;;;;;5113460;28;20219;-65
2022/07/30 10:22:53;;;;;;;11.60;7.37;;;22.90;99.90;;;;;;5113312;28;20233;-65
2022/07/30 10:25:21;;;;;;;11.37;6.70;;;23.10;99.90;;;;;;5114928;28;20265;-65
2022/07/30 10:27:48;;;;;;;8.17;6.20;;;23.30;99.90;;;;;;5114054;28;20207;-65
2022/07/30 10:30:17;;;;;;;11.13;7.07;;;23.40;99.90;;;;;;5113073;28;20765;-65
2022/07/30 10:32:45;;;;;;;12.27;6.60;;;23.40;99.90;;;;;;5114260;27;20211;-65
2022/07/30 10:35:13;;;;;;;8.57;6.47;;;23.40;99.90;;;;;;5113120;28;20223;-64
2022/07/30 10:37:44;;;;;;;11.13;6.93;;;23.00;99.90;;;;;;5113159;28;20215;-65
2022/07/30 10:40:19;;;;;;;9.53;6.03;;;22.70;99.90;;;;;;5113006;28;20232;-65
2022/07/30 10:43:28;;;;;;;10.83;7.03;;;22.70;99.90;;;;;;5112635;28;20213;-65
2022/07/30 10:46:05;;;;;;;9.90;6.27;;;22.80;99.90;;;;;;5104136;28;20252;-65
2022/07/30 10:48:33;;;;;;;9.30;6.07;;;23.10;99.90;;;;;;5113156;28;20206;-65
2022/07/30 10:51:00;;;;;;;8.47;6.73;;;22.90;99.90;;;;;;5112499;28;20300;-64
2022/07/30 10:53:35;;;;;;;9.30;6.50;;;22.80;99.90;;;;;;5113200;28;20279;-65
2022/07/30 10:56:13;;;;;;;9.00;6.43;;;22.90;99.90;;;;;;5112182;28;20219;-65
2022/07/30 10:59:01;;;;;;;10.10;5.90;;;23.20;99.90;;;;;;5112549;28;20215;-65
2022/07/30 11:02:01;;;;;;;10.07;5.67;;;23.50;99.90;;;;;;5112450;28;20224;-66
2022/07/30 11:04:30;;;;;;;10.13;5.23;;;23.80;99.90;;;;;;5112411;28;20204;-67
2022/07/30 11:07:28;;;;;;;11.13;5.93;;;24.00;99.90;;;;;;5112249;28;20674;-67
2022/07/30 11:09:56;;;;;;;10.70;6.40;;;23.80;99.90;;;;;;5112422;28;20223;-66
2022/07/30 11:12:54;;;;;;;11.27;6.33;;;23.60;99.90;;;;;;5112735;28;20215;-66
2022/07/30 11:15:21;;;;;;;10.97;6.43;;;23.70;99.90;;;;;;5112843;28;20227;-67
2022/07/30 11:18:03;;;;;;;7.13;6.10;;;24.00;99.90;;;;;;5111897;28;20239;-66
2022/07/30 11:20:32;;;;;;;7.03;5.80;;;24.30;99.90;;;;;;5110978;28;20223;-66
2022/07/30 11:23:35;;;;;;;12.77;6.60;;;24.50;99.90;;;;;;5112816;28;20618;-66
2022/07/30 11:26:02;;;;;;;9.63;6.30;;;24.60;99.90;;;;;;5112518;28;20688;-66
2022/07/30 11:28:38;;;;;;;9.43;7.90;;;24.70;99.90;;;;;;5112689;28;20211;-66
2022/07/30 11:31:25;;;;;;;9.37;7.33;;;24.60;99.90;;;;;;5112649;28;20227;-66
2022/07/30 11:33:52;;;;;;;8.83;7.07;;;24.60;99.90;;;;;;5112622;28;20293;-66
2022/07/30 11:36:20;;;;;;;10.43;6.37;;;24.60;99.90;;;;;;5112503;28;20227;-66
2022/07/30 11:38:58;;;;;;;9.03;6.30;;;24.50;99.90;;;;;;5112638;28;20207;-66
2022/07/30 11:41:25;;;;;;;6.87;6.03;;;24.50;99.90;;;;;;5112525;28;20223;-66
2022/07/30 11:44:26;;;;;;;10.27;5.50;;;24.50;99.90;;;;;;5112218;28;20681;-66
2022/07/30 11:46:52;;;;;;;4.80;3.90;;;24.80;99.90;;;;;;5049316;28;20205;-66
2022/07/30 11:49:19;;;;;;;4.73;3.70;;;25.00;99.90;;;;;;5049169;28;20210;-66
2022/07/30 11:51:49;;;;;;;6.53;3.67;;;25.00;99.90;;;;;;5077160;28;20256;-66
2022/07/30 11:54:15;;;;;;;5.37;3.87;;;25.10;99.90;;;;;;5112168;28;20306;-66
2022/07/30 11:56:49;;;;;;;7.47;4.40;;;24.80;99.90;;;;;;5111968;28;20223;-66
2022/07/30 11:59:16;;;;;;;6.80;4.20;;;25.00;99.90;;;;;;5112281;28;20617;-66
2022/07/30 12:01:43;;;;;;;6.30;3.90;;;25.00;99.90;;;;;;5112311;28;20681;-66
2022/07/30 12:04:10;;;;;;;6.23;3.20;;;24.90;99.90;;;;;;5112245;28;20203;-66
2022/07/30 12:06:44;;;;;;;4.53;2.80;;;24.90;99.90;;;;;;5112018;28;20208;-66
2022/07/30 12:09:12;;;;;;;5.77;2.80;;;24.80;99.90;;;;;;5112034;28;20203;-66
2022/07/30 12:11:39;;;;;;;4.17;2.80;;;25.00;99.90;;;;;;5112271;28;20227;-66
2022/07/30 12:14:05;;;;;;;2.73;2.27;;;25.00;99.90;;;;;;5112237;28;20203;-66
2022/07/30 12:16:33;;;;;;;4.53;2.87;;;25.00;99.90;;;;;;5111708;28;20594;-66
2022/07/30 12:19:02;;;;;;;3.47;2.40;;;24.60;99.90;;;;;;5112017;28;20222;-66
2022/07/30 12:21:29;;;;;;;5.73;3.00;;;24.80;99.90;;;;;;5111893;28;20661;-66
2022/07/30 12:23:58;;;;;;;4.40;2.33;;;24.60;99.90;;;;;;5112415;28;20206;-66
2022/07/30 12:26:28;;;;;;;5.53;2.57;;;24.80;99.90;;;;;;5111725;28;20199;-66
2022/07/30 12:28:56;;;;;;;3.43;2.20;;;25.00;99.90;;;;;;5112110;28;20203;-66
2022/07/30 12:31:23;;;;;;;5.17;2.13;;;25.10;99.90;;;;;;5114806;28;20226;-66
2022/07/30 12:33:50;;;;;;;4.03;2.60;;;25.30;99.90;;;;;;5116147;28;20207;-66
2022/07/30 12:36:29;;;;;;;3.53;2.03;;;25.40;99.90;;;;;;5115730;28;20284;-66
2022/07/30 12:38:56;;;;;;;4.00;2.00;;;25.30;99.90;;;;;;5115915;28;20211;-66
2022/07/30 12:41:39;;;;;;;4.50;2.03;;;25.50;99.90;;;;;;5115987;28;20603;-66
2022/07/30 12:44:07;;;;;;;6.50;2.20;;;25.60;99.90;;;;;;5114129;28;20203;-66
2022/07/30 12:46:40;;;;;;;5.43;1.77;;;25.50;99.90;;;;;;5114847;28;20254;-67
2022/07/30 12:49:08;;;;;;;12.80;4.13;;;25.50;99.90;;;;;;5100585;28;20218;-66
2022/07/30 12:51:49;;;;;;;6.43;2.47;;;25.60;99.90;;;;;;5113915;28;20224;-65